createdAt,value
2024-02-07T00:01:53.775Z,99258.66
2024-02-07T00:03:56.750Z,99228.53
2024-02-07T00:06:00.105Z,99222.56
2024-02-07T00:08:03.149Z,99233.41
2024-02-07T00:10:07.908Z,99224.72
2024-02-07T00:12:10.747Z,99242.63
2024-02-07T00:14:14.209Z,99221.06
2024-02-07T00:16:17.061Z,99208.09
2024-02-07T00:18:21.507Z,99188.91
2024-02-07T00:20:24.504Z,99206.50
2024-02-07T00:22:26.332Z,99201.13
2024-02-07T00:24:29.362Z,99198.63
2024-02-07T00:26:31.085Z,99196.47
2024-02-07T00:28:33.869Z,99184.81
2024-02-07T00:30:40.291Z,99191.66
2024-02-07T00:32:43.714Z,99190.31
2024-02-07T00:34:49.780Z,99168.69
2024-02-07T00:36:52.528Z,99151.09
2024-02-07T00:38:55.402Z,99150.50
2024-02-07T00:40:58.486Z,99186.41
2024-02-07T00:43:01.558Z,99163.00
2024-02-07T00:45:05.259Z,99191.81
2024-02-07T00:47:08.584Z,99173.63
2024-02-07T00:49:14.469Z,99205.75
2024-02-07T00:51:19.331Z,99182.78
2024-02-07T00:53:22.036Z,99147.06
2024-02-07T00:55:26.715Z,99117.47
2024-02-07T00:57:30.037Z,99182.34
2024-02-07T00:59:32.921Z,99197.06
2024-02-07T01:01:36.062Z,99139.69
2024-02-07T01:03:39.596Z,99169.16
2024-02-07T01:05:42.521Z,99175.69
2024-02-07T01:07:46.755Z,99174.28
2024-02-07T01:09:50.139Z,99181.09
2024-02-07T01:11:54.620Z,99247.97
2024-02-07T01:13:59.249Z,99254.09
2024-02-07T01:16:02.349Z,99255.31
2024-02-07T01:18:05.847Z,99263.75
2024-02-07T01:20:12.000Z,99236.41
2024-02-07T01:22:15.187Z,99235.84
2024-02-07T01:24:20.634Z,99259.06
2024-02-07T01:26:23.369Z,99270.44
2024-02-07T01:28:26.577Z,99256.97
2024-02-07T01:30:28.995Z,99296.88
2024-02-07T01:32:31.812Z,99275.69
2024-02-07T01:34:37.702Z,99284.09
2024-02-07T01:36:46.570Z,99295.31
2024-02-07T01:38:48.704Z,99282.25
2024-02-07T01:40:54.052Z,99293.94
2024-02-07T01:42:57.652Z,99289.47
2024-02-07T01:45:25.315Z,99310.81
2024-02-07T01:47:28.210Z,99276.66
2024-02-07T01:49:30.209Z,99262.06
2024-02-07T01:51:34.168Z,99316.78
2024-02-07T01:53:39.732Z,99317.72
2024-02-07T01:55:47.410Z,99295.44
2024-02-07T01:57:50.875Z,99326.16
2024-02-07T01:59:53.696Z,99325.22
2024-02-07T02:01:56.828Z,99305.72
2024-02-07T02:04:00.249Z,99313.47
2024-02-07T02:06:03.091Z,99317.78
2024-02-07T02:08:06.614Z,99288.69
2024-02-07T02:10:14.306Z,99321.50
2024-02-07T02:12:17.869Z,99312.06
2024-02-07T02:14:23.311Z,99319.66
2024-02-07T02:16:26.144Z,99319.66
2024-02-07T02:18:31.692Z,99320.75
2024-02-07T02:20:34.803Z,99303.81
2024-02-07T02:22:52.029Z,99297.28
2024-02-07T02:25:18.583Z,99317.69
2024-02-07T02:27:37.153Z,99322.63
2024-02-07T02:29:46.567Z,99317.38
2024-02-07T02:31:53.347Z,99293.25
2024-02-07T02:33:58.449Z,99302.50
2024-02-07T02:36:02.175Z,99318.31
2024-02-07T02:38:06.219Z,99312.31
2024-02-07T02:40:10.411Z,99319.19
2024-02-07T02:42:13.737Z,99308.28
2024-02-07T02:44:17.936Z,99329.31
2024-02-07T02:46:21.883Z,99321.44
2024-02-07T02:48:25.079Z,99317.84
2024-02-07T02:50:29.786Z,99312.16
2024-02-07T02:52:32.785Z,99316.25
2024-02-07T02:54:37.905Z,99320.53
2024-02-07T02:56:41.286Z,99322.38
2024-02-07T02:58:44.926Z,99307.09
2024-02-07T03:00:51.589Z,99329.13
2024-02-07T03:02:57.798Z,99325.81
2024-02-07T03:05:04.044Z,99328.09
2024-02-07T03:07:26.958Z,99274.72
2024-02-07T03:09:32.006Z,99329.19
2024-02-07T03:11:35.165Z,99323.28
2024-02-07T03:13:40.902Z,99341.97
2024-02-07T03:15:44.844Z,99353.63
2024-02-07T03:17:48.014Z,99346.09
2024-02-07T03:19:52.412Z,99356.97
2024-02-07T03:21:56.794Z,99363.00
2024-02-07T03:23:59.449Z,99357.28
2024-02-07T03:26:03.144Z,99345.47
2024-02-07T03:28:06.574Z,99370.28
2024-02-07T03:30:10.276Z,99337.94
2024-02-07T03:32:13.944Z,99356.53
2024-02-07T03:34:17.220Z,99369.00
2024-02-07T03:36:23.579Z,99356.84
2024-02-07T03:38:26.422Z,99335.56
2024-02-07T03:40:29.479Z,99349.63
2024-02-07T03:42:32.176Z,99359.50
2024-02-07T03:44:34.875Z,99338.31
2024-02-07T03:46:38.570Z,99352.81
2024-02-07T03:48:41.791Z,99336.13
2024-02-07T03:50:44.764Z,99318.84
2024-02-07T03:52:50.097Z,99340.13
2024-02-07T03:54:52.799Z,99345.16
2024-02-07T03:56:56.123Z,99348.59
2024-02-07T03:58:59.720Z,99335.81
2024-02-07T04:01:02.816Z,99342.88
2024-02-07T04:03:06.671Z,99263.81
2024-02-07T04:05:09.651Z,99351.69
2024-02-07T04:07:13.008Z,99344.88
2024-02-07T04:09:19.691Z,99320.78
2024-02-07T04:11:21.452Z,99363.34
2024-02-07T04:13:23.289Z,99361.63
2024-02-07T04:15:44.041Z,99365.50
2024-02-07T04:18:12.638Z,99362.06
2024-02-07T04:20:33.149Z,99368.16
2024-02-07T04:22:53.250Z,99367.72
2024-02-07T04:25:14.934Z,99375.28
2024-02-07T04:27:34.981Z,99366.22
2024-02-07T04:29:55.301Z,99372.41
2024-02-07T04:32:15.847Z,99363.84
2024-02-07T04:34:36.181Z,99374.75
2024-02-07T04:36:56.686Z,99378.44
2024-02-07T04:39:17.202Z,99344.69
2024-02-07T04:41:38.829Z,99360.09
2024-02-07T04:43:59.310Z,99358.41
2024-02-07T04:46:19.752Z,99340.50
2024-02-07T04:48:40.148Z,99354.81
2024-02-07T04:51:00.635Z,99365.13
2024-02-07T04:53:23.534Z,99353.56
2024-02-07T04:55:44.045Z,99357.47
2024-02-07T04:58:05.906Z,99357.91
2024-02-07T05:00:27.231Z,99373.66
2024-02-07T05:02:47.377Z,99360.03
2024-02-07T05:05:07.890Z,99369.38
2024-02-07T05:07:28.569Z,99372.75
2024-02-07T05:09:48.933Z,99365.53
2024-02-07T05:12:09.212Z,99367.00
2024-02-07T05:14:30.659Z,99374.16
2024-02-07T05:16:33.659Z,99328.88
2024-02-07T05:18:37.322Z,99319.16
2024-02-07T05:20:40.528Z,99315.88
2024-02-07T05:22:43.751Z,99332.44
2024-02-07T05:24:48.304Z,99349.47
2024-02-07T05:26:51.225Z,99337.53
2024-02-07T05:28:54.835Z,99335.72
2024-02-07T05:30:59.285Z,99330.50
2024-02-07T05:33:01.287Z,99333.03
2024-02-07T05:35:04.320Z,99347.28
2024-02-07T05:37:07.190Z,99338.91
2024-02-07T05:39:10.395Z,99332.66
2024-02-07T05:41:13.415Z,99346.94
2024-02-07T05:43:16.541Z,99354.22
2024-02-07T05:45:19.589Z,99359.44
2024-02-07T05:47:23.666Z,99360.13
2024-02-07T05:49:26.714Z,99370.75
2024-02-07T05:51:30.093Z,99368.72
2024-02-07T05:53:32.937Z,99367.28
2024-02-07T05:55:37.796Z,99371.19
2024-02-07T05:57:39.818Z,99364.59
2024-02-07T05:59:42.801Z,99376.63
2024-02-07T06:01:45.826Z,99347.22
2024-02-07T06:03:54.279Z,99382.06
2024-02-07T06:05:59.415Z,99376.28
2024-02-07T06:08:02.430Z,99381.22
2024-02-07T06:10:05.806Z,99372.09
2024-02-07T06:12:12.353Z,99366.53
2024-02-07T06:14:16.677Z,99381.22
2024-02-07T06:16:21.373Z,99314.38
2024-02-07T06:18:24.657Z,99373.66
2024-02-07T06:20:30.350Z,99386.50
2024-02-07T06:22:34.239Z,99384.41
2024-02-07T06:24:37.477Z,99393.94
2024-02-07T06:26:40.297Z,99391.91
2024-02-07T06:28:43.224Z,99389.41
2024-02-07T06:30:46.223Z,99388.97
2024-02-07T06:32:49.166Z,99396.34
2024-02-07T06:34:52.460Z,99379.38
2024-02-07T06:36:55.835Z,99395.59
2024-02-07T06:38:58.896Z,99393.06
2024-02-07T06:41:00.968Z,99337.50
2024-02-07T06:43:05.391Z,99387.44
2024-02-07T06:45:09.811Z,99385.47
2024-02-07T06:47:14.176Z,99373.16
2024-02-07T06:49:17.119Z,99372.66
2024-02-07T06:51:20.465Z,99366.22
2024-02-07T06:53:25.098Z,99403.53
2024-02-07T06:55:28.314Z,99401.88
2024-02-07T06:57:31.073Z,99393.22
2024-02-07T06:59:33.877Z,99395.75
2024-02-07T07:01:36.641Z,99391.44
2024-02-07T07:03:39.429Z,99413.38
2024-02-07T07:05:42.331Z,99410.94
2024-02-07T07:07:45.290Z,99404.06
2024-02-07T07:09:49.321Z,99407.16
2024-02-07T07:11:52.163Z,99407.09
2024-02-07T07:13:56.927Z,99420.34
2024-02-07T07:16:01.305Z,99399.63
2024-02-07T07:18:04.344Z,99422.59
2024-02-07T07:20:07.576Z,99409.09
2024-02-07T07:22:12.126Z,99426.22
2024-02-07T07:24:15.480Z,99417.25
2024-02-07T07:26:19.668Z,99415.41
2024-02-07T07:28:22.656Z,99393.53
2024-02-07T07:30:25.504Z,99410.88
2024-02-07T07:32:28.302Z,99424.53
2024-02-07T07:34:31.238Z,99429.63
2024-02-07T07:36:34.155Z,99418.53
2024-02-07T07:38:36.797Z,99431.03
2024-02-07T07:40:40.679Z,99434.72
2024-02-07T07:42:45.250Z,99451.69
2024-02-07T07:44:47.908Z,99442.28
2024-02-07T07:46:50.687Z,99440.00
2024-02-07T07:48:53.779Z,99427.09
2024-02-07T07:50:56.588Z,99433.88
2024-02-07T07:52:59.697Z,99450.94
2024-02-07T07:55:02.510Z,99457.88
2024-02-07T07:57:05.814Z,99435.81
2024-02-07T07:59:10.739Z,99457.38
2024-02-07T08:01:14.335Z,99443.53
2024-02-07T08:03:17.040Z,99447.94
2024-02-07T08:05:20.017Z,99451.16
2024-02-07T08:07:23.035Z,99447.91
2024-02-07T08:09:25.830Z,99458.13
2024-02-07T08:11:28.534Z,99451.91
2024-02-07T08:13:31.254Z,99440.78
2024-02-07T08:15:35.355Z,99465.56
2024-02-07T08:17:38.095Z,99441.09
2024-02-07T08:19:41.292Z,99458.69
2024-02-07T08:21:44.039Z,99471.28
2024-02-07T08:23:47.398Z,99475.97
2024-02-07T08:25:49.280Z,99463.94
2024-02-07T08:27:52.311Z,99462.53
2024-02-07T08:29:55.055Z,99462.16
2024-02-07T08:32:01.607Z,99462.44
2024-02-07T08:34:04.867Z,99474.28
2024-02-07T08:36:09.018Z,99470.94
2024-02-07T08:38:11.911Z,99487.31
2024-02-07T08:40:15.307Z,99476.38
2024-02-07T08:42:18.156Z,99470.44
2024-02-07T08:44:20.827Z,99472.50
2024-02-07T08:46:24.233Z,99481.22
2024-02-07T08:48:29.325Z,99483.47
2024-02-07T08:50:32.252Z,99476.75
2024-02-07T08:52:34.013Z,99493.88
2024-02-07T08:54:36.699Z,99482.09
2024-02-07T08:56:39.413Z,99498.28
2024-02-07T08:58:42.067Z,99497.31
2024-02-07T09:00:45.131Z,99493.94
2024-02-07T09:02:51.186Z,99491.97
2024-02-07T09:04:55.759Z,99508.00
2024-02-07T09:06:58.508Z,99490.50
2024-02-07T09:09:01.228Z,99501.16
2024-02-07T09:11:02.991Z,99505.94
2024-02-07T09:13:05.953Z,99485.56
2024-02-07T09:15:09.547Z,99496.72
2024-02-07T09:17:12.337Z,99511.09
2024-02-07T09:19:16.032Z,99503.22
2024-02-07T09:21:20.272Z,99510.25
2024-02-07T09:23:22.945Z,99516.50
2024-02-07T09:25:26.832Z,99520.28
2024-02-07T09:27:31.102Z,99507.91
2024-02-07T09:29:34.350Z,99532.13
2024-02-07T09:31:37.028Z,99532.44
2024-02-07T09:33:40.795Z,99526.31
2024-02-07T09:35:43.810Z,99519.09
2024-02-07T09:37:48.560Z,99529.66
2024-02-07T09:39:51.307Z,99530.09
2024-02-07T09:41:55.165Z,99532.78
2024-02-07T09:43:59.179Z,99545.16
2024-02-07T09:46:01.554Z,99538.69
2024-02-07T09:48:14.250Z,99540.44
2024-02-07T09:50:18.496Z,99544.38
2024-02-07T09:52:21.798Z,99519.19
2024-02-07T09:54:25.123Z,99540.44
2024-02-07T09:56:28.197Z,99563.31
2024-02-07T09:58:31.778Z,99563.97
2024-02-07T10:00:34.555Z,99563.63
2024-02-07T10:02:38.702Z,99570.09
2024-02-07T10:04:48.076Z,99573.53
2024-02-07T10:06:51.440Z,99568.66
2024-02-07T10:08:54.314Z,99580.00
2024-02-07T10:10:59.132Z,99587.75
2024-02-07T10:13:02.022Z,99582.56
2024-02-07T10:15:05.313Z,99578.66
2024-02-07T10:17:08.183Z,99579.06
2024-02-07T10:19:10.998Z,99587.66
2024-02-07T10:21:13.813Z,99601.00
2024-02-07T10:23:16.484Z,99606.97
2024-02-07T10:25:19.381Z,99568.84
2024-02-07T10:27:23.984Z,99596.13
2024-02-07T10:29:26.543Z,99597.88
2024-02-07T10:31:29.985Z,99606.41
2024-02-07T10:33:41.517Z,99619.72
2024-02-07T10:35:44.587Z,99612.78
2024-02-07T10:37:47.854Z,99610.78
2024-02-07T10:39:50.918Z,99614.34
2024-02-07T10:41:53.656Z,99618.34
2024-02-07T10:44:06.944Z,99628.22
2024-02-07T10:46:14.321Z,99620.06
2024-02-07T10:48:17.353Z,99636.63
2024-02-07T10:50:22.135Z,99646.13
2024-02-07T10:52:25.353Z,99634.69
2024-02-07T10:54:27.340Z,99635.97
2024-02-07T10:56:30.089Z,99642.97
2024-02-07T10:58:33.747Z,99639.88
2024-02-07T11:00:38.115Z,99632.13
2024-02-07T11:02:41.138Z,99622.75
2024-02-07T11:04:45.765Z,99644.06
2024-02-07T11:06:50.323Z,99639.66
2024-02-07T11:08:53.614Z,99628.38
2024-02-07T11:10:58.195Z,99630.22
2024-02-07T11:13:01.935Z,99642.06
2024-02-07T11:15:04.967Z,99649.69
2024-02-07T11:17:10.489Z,99627.28
2024-02-07T11:19:13.314Z,99639.44
2024-02-07T11:21:19.323Z,99640.50
2024-02-07T11:23:24.966Z,99644.28
2024-02-07T11:25:28.070Z,99636.63
2024-02-07T11:27:31.089Z,99645.59
2024-02-07T11:29:35.843Z,99620.06
2024-02-07T11:31:38.623Z,99641.94
2024-02-07T11:33:44.634Z,99652.53
2024-02-07T11:35:47.522Z,99637.13
2024-02-07T11:37:50.915Z,99619.16
2024-02-07T11:39:53.664Z,99652.88
2024-02-07T11:41:57.704Z,99645.22
2024-02-07T11:44:06.278Z,99614.53
2024-02-07T11:46:09.257Z,99632.63
2024-02-07T11:48:19.518Z,99640.38
2024-02-07T11:50:24.058Z,99640.19
2024-02-07T11:52:28.653Z,99656.13
2024-02-07T11:54:32.650Z,99641.13
2024-02-07T11:56:35.549Z,99657.88
2024-02-07T11:58:38.745Z,99655.50
2024-02-07T12:00:42.681Z,99650.72
2024-02-07T12:02:48.610Z,99669.25
2024-02-07T12:04:51.369Z,99667.84
2024-02-07T12:06:56.529Z,99673.69
2024-02-07T12:08:59.284Z,99667.97
2024-02-07T12:11:02.319Z,99664.09
2024-02-07T12:13:05.447Z,99656.88
2024-02-07T12:15:09.801Z,99679.75
2024-02-07T12:17:12.558Z,99680.28
2024-02-07T12:19:16.777Z,99680.69
2024-02-07T12:21:22.578Z,99689.00
2024-02-07T12:23:29.691Z,99682.63
2024-02-07T12:25:32.661Z,99692.66
2024-02-07T12:27:35.821Z,99693.84
2024-02-07T12:29:37.501Z,99697.34
2024-02-07T12:31:40.231Z,99677.13
2024-02-07T12:33:43.110Z,99698.34
2024-02-07T12:35:52.524Z,99672.94
2024-02-07T12:37:59.605Z,99689.84
2024-02-07T12:40:04.774Z,99677.88
2024-02-07T12:42:08.624Z,99692.53
2024-02-07T12:44:13.792Z,99690.59
2024-02-07T12:46:18.413Z,99678.91
2024-02-07T12:48:21.167Z,99696.16
2024-02-07T12:50:24.884Z,99689.38
2024-02-07T12:52:27.879Z,99685.25
2024-02-07T12:54:31.549Z,99669.31
2024-02-07T12:56:35.611Z,99695.22
2024-02-07T12:58:43.309Z,99699.41
2024-02-07T13:00:46.561Z,99704.03
2024-02-07T13:02:49.834Z,99685.94
2024-02-07T13:04:51.740Z,99702.72
2024-02-07T13:06:54.518Z,99693.03
2024-02-07T13:08:57.228Z,99707.66
2024-02-07T13:11:00.257Z,99692.06
2024-02-07T13:13:05.232Z,99707.56
2024-02-07T13:15:07.507Z,99706.69
2024-02-07T13:17:11.251Z,99730.94
2024-02-07T13:19:15.582Z,99722.47
2024-02-07T13:21:18.598Z,99729.25
2024-02-07T13:23:23.144Z,99717.28
2024-02-07T13:25:26.648Z,99704.03
2024-02-07T13:27:29.714Z,99734.31
2024-02-07T13:29:34.725Z,99737.66
2024-02-07T13:31:37.633Z,99738.97
2024-02-07T13:33:41.268Z,99737.56
2024-02-07T13:35:44.194Z,99740.94
2024-02-07T13:37:47.145Z,99743.72
2024-02-07T13:39:50.272Z,99732.72
2024-02-07T13:41:53.433Z,99754.59
2024-02-07T13:43:57.650Z,99746.72
2024-02-07T13:46:01.861Z,99760.53
2024-02-07T13:48:05.504Z,99748.75
2024-02-07T13:50:10.183Z,99751.00
2024-02-07T13:52:13.289Z,99761.03
2024-02-07T13:54:16.298Z,99767.16
2024-02-07T13:56:18.178Z,99750.59
2024-02-07T13:58:21.039Z,99764.41
2024-02-07T14:00:23.876Z,99776.38
2024-02-07T14:02:28.044Z,99754.47
2024-02-07T14:04:30.709Z,99761.34
2024-02-07T14:06:32.862Z,99778.72
2024-02-07T14:08:36.052Z,99787.00
2024-02-07T14:10:39.111Z,99782.13
2024-02-07T14:12:41.998Z,99771.97
2024-02-07T14:14:44.602Z,99771.72
2024-02-07T14:16:47.540Z,99772.97
2024-02-07T14:18:52.383Z,99784.06
2024-02-07T14:20:55.125Z,99782.84
2024-02-07T14:22:57.891Z,99773.84
2024-02-07T14:25:00.868Z,99796.72
2024-02-07T14:27:03.901Z,99788.03
2024-02-07T14:29:06.824Z,99794.72
2024-02-07T14:31:10.257Z,99779.97
2024-02-07T14:33:13.823Z,99784.38
2024-02-07T14:35:20.654Z,99785.53
2024-02-07T14:37:23.592Z,99768.94
2024-02-07T14:39:29.646Z,99784.97
2024-02-07T14:41:32.410Z,99792.94
2024-02-07T14:43:34.241Z,99766.47
2024-02-07T14:45:37.024Z,99804.56
2024-02-07T14:47:40.090Z,99793.97
2024-02-07T14:49:43.388Z,99807.25
2024-02-07T14:51:47.943Z,99800.34
2024-02-07T14:53:50.859Z,99805.31
2024-02-07T14:55:59.682Z,99818.25
2024-02-07T14:58:02.816Z,99802.88
2024-02-07T15:00:06.735Z,99813.56
2024-02-07T15:02:13.151Z,99816.25
2024-02-07T15:04:15.360Z,99803.34
2024-02-07T15:08:26.951Z,99803.78
2024-02-07T15:10:30.268Z,99816.91
2024-02-07T15:12:34.156Z,99807.22
2024-02-07T15:14:37.375Z,99771.00
2024-02-07T15:16:40.591Z,99813.34
2024-02-07T15:18:44.162Z,99815.13
2024-02-07T15:20:47.824Z,99820.22
2024-02-07T15:22:51.018Z,99818.28
2024-02-07T15:24:55.830Z,99816.59
2024-02-07T15:26:59.228Z,99813.34
2024-02-07T15:29:02.785Z,99828.19
2024-02-07T15:31:06.190Z,99822.53
2024-02-07T15:33:09.540Z,99825.66
2024-02-07T15:35:14.594Z,99821.47
2024-02-07T15:37:18.353Z,99833.03
2024-02-07T15:39:21.595Z,99835.78
2024-02-07T15:41:26.448Z,99828.47
2024-02-07T15:43:29.785Z,99834.34
2024-02-07T15:45:33.252Z,99841.66
2024-02-07T15:47:36.808Z,99834.50
2024-02-07T15:49:40.140Z,99838.72
2024-02-07T15:51:43.760Z,99839.47
2024-02-07T15:53:46.795Z,99847.59
2024-02-07T15:55:49.950Z,99841.88
2024-02-07T15:57:54.312Z,99857.97
2024-02-07T15:59:59.664Z,99845.38
2024-02-07T16:02:03.282Z,99851.91
2024-02-07T16:04:06.456Z,99856.09
2024-02-07T16:06:09.561Z,99856.69
2024-02-07T16:08:12.796Z,99856.75
2024-02-07T16:10:17.274Z,99855.56
2024-02-07T16:12:20.670Z,99858.25
2024-02-07T16:14:25.032Z,99865.63
2024-02-07T16:16:27.973Z,99843.66
2024-02-07T16:18:33.726Z,99865.16
2024-02-07T16:20:37.061Z,99855.50
2024-02-07T16:22:40.115Z,99866.44
2024-02-07T16:24:44.153Z,99870.22
2024-02-07T16:26:47.262Z,99839.56
2024-02-07T16:28:50.288Z,99883.66
2024-02-07T16:30:54.701Z,99882.88
2024-02-07T16:32:58.056Z,99884.16
2024-02-07T16:37:30.792Z,99888.47
2024-02-07T16:39:34.172Z,99886.19
2024-02-07T16:41:37.640Z,99882.81
2024-02-07T16:43:42.722Z,99877.84
2024-02-07T16:45:46.157Z,99884.31
2024-02-07T16:47:50.656Z,99895.81
2024-02-07T16:49:54.182Z,99893.25
2024-02-07T16:52:00.358Z,99889.41
2024-02-07T16:54:03.836Z,99892.78
2024-02-07T16:56:05.916Z,99896.22
2024-02-07T16:58:09.994Z,99908.44
2024-02-07T17:00:13.664Z,99904.59
2024-02-07T17:02:17.078Z,99879.69
2024-02-07T17:04:21.893Z,99914.22
2024-02-07T17:06:25.234Z,99912.94
2024-02-07T17:08:32.115Z,99894.09
2024-02-07T17:10:35.294Z,99900.03
2024-02-07T17:12:38.170Z,99904.69
2024-02-07T17:14:42.144Z,99908.53
2024-02-07T17:16:45.267Z,99908.88
2024-02-07T17:18:48.253Z,99918.09
2024-02-07T17:20:52.827Z,99919.69
2024-02-07T17:22:57.716Z,99916.59
2024-02-07T17:25:01.012Z,99906.72
2024-02-07T17:27:04.354Z,99913.16
2024-02-07T17:29:08.388Z,99916.50
2024-02-07T17:31:12.852Z,99919.94
2024-02-07T17:33:17.357Z,99921.16
2024-02-07T17:35:21.925Z,99921.91
2024-02-07T17:37:26.439Z,99916.91
2024-02-07T17:39:29.562Z,99935.81
2024-02-07T17:41:32.749Z,99928.63
2024-02-07T17:43:36.125Z,99931.63
2024-02-07T17:45:39.106Z,99913.38
2024-02-07T17:47:42.267Z,99934.66
2024-02-07T17:49:47.059Z,99940.50
2024-02-07T17:51:48.973Z,99933.56
2024-02-07T17:53:53.450Z,99934.00
2024-02-07T17:55:56.770Z,99923.84
2024-02-07T17:57:59.772Z,99921.59
2024-02-07T18:00:02.601Z,99927.38
2024-02-07T18:02:06.242Z,99936.59
2024-02-07T18:04:09.148Z,99939.41
2024-02-07T18:06:12.254Z,99943.88
2024-02-07T18:08:15.319Z,99921.19
2024-02-07T18:10:19.162Z,99942.88
2024-02-07T18:12:21.940Z,99932.97
2024-02-07T18:14:26.458Z,99938.72
2024-02-07T18:16:30.473Z,99930.00
2024-02-07T18:18:33.677Z,99923.50
2024-02-07T18:20:36.994Z,99938.50
2024-02-07T18:22:40.059Z,99939.97
2024-02-07T18:24:43.423Z,99942.69
2024-02-07T18:26:51.993Z,99927.91
2024-02-07T18:28:56.106Z,99944.66
2024-02-07T18:30:59.535Z,99925.34
2024-02-07T18:33:04.834Z,99927.66
2024-02-07T18:35:08.631Z,99944.00
2024-02-07T18:37:10.705Z,99947.44
2024-02-07T18:39:14.924Z,99932.28
2024-02-07T18:41:21.073Z,99946.44
2024-02-07T18:43:26.398Z,99946.84
2024-02-07T18:45:31.555Z,99939.56
2024-02-07T18:47:34.436Z,99928.66
2024-02-07T18:49:37.509Z,99944.53
2024-02-07T18:51:40.987Z,99938.13
2024-02-07T18:53:45.051Z,99946.03
2024-02-07T18:55:47.976Z,99948.00
2024-02-07T18:57:56.557Z,99951.84
2024-02-07T19:00:00.769Z,99927.13
2024-02-07T19:02:03.727Z,99943.41
2024-02-07T19:04:08.267Z,99937.38
2024-02-07T19:06:11.421Z,99943.94
2024-02-07T19:08:14.797Z,99928.66
2024-02-07T19:10:17.966Z,99946.50
2024-02-07T19:12:20.794Z,99935.19
2024-02-07T19:14:24.670Z,99949.31
2024-02-07T19:16:30.700Z,99929.13
2024-02-07T19:18:33.953Z,99953.16
2024-02-07T19:20:37.124Z,99951.59
2024-02-07T19:22:41.321Z,99952.78
2024-02-07T19:24:44.626Z,99957.47
2024-02-07T19:26:49.457Z,99955.69
2024-02-07T19:28:53.577Z,99964.53
2024-02-07T19:30:56.492Z,99962.19
2024-02-07T19:33:01.410Z,99958.41
2024-02-07T19:35:05.599Z,99935.81
2024-02-07T19:37:08.559Z,99951.88
2024-02-07T19:39:10.506Z,99956.47
2024-02-07T19:41:13.734Z,99956.53
2024-02-07T19:43:16.649Z,99957.31
2024-02-07T19:45:19.573Z,99958.09
2024-02-07T19:47:21.760Z,99966.91
2024-02-07T19:49:26.480Z,99961.97
2024-02-07T19:51:29.494Z,99961.28
2024-02-07T19:53:32.462Z,99972.25
2024-02-07T19:55:35.582Z,99964.63
2024-02-07T19:57:38.611Z,99954.09
2024-02-07T19:59:41.830Z,99960.47
2024-02-07T20:01:45.138Z,99960.81
2024-02-07T20:03:48.240Z,99967.66
2024-02-07T20:05:53.670Z,99972.75
2024-02-07T20:07:57.830Z,99959.09
2024-02-07T20:10:04.172Z,99959.75
2024-02-07T20:12:08.289Z,99946.13
2024-02-07T20:14:11.934Z,99949.59
2024-02-07T20:16:15.068Z,99950.25
2024-02-07T20:18:19.363Z,99951.81
2024-02-07T20:20:22.422Z,99953.47
2024-02-07T20:22:27.276Z,99949.16
2024-02-07T20:24:30.273Z,99937.41
2024-02-07T20:26:36.939Z,99899.75
2024-02-07T20:28:41.782Z,99914.31
2024-02-07T20:30:45.849Z,99957.97
2024-02-07T20:32:48.727Z,99912.81
2024-02-07T20:34:51.907Z,99950.44
2024-02-07T20:36:55.626Z,99950.03
2024-02-07T20:39:07.660Z,99951.97
2024-02-07T20:41:13.420Z,99940.94
2024-02-07T20:43:15.269Z,99951.59
2024-02-07T20:45:19.147Z,99949.31
2024-02-07T20:47:23.519Z,99915.56
2024-02-07T20:49:26.647Z,99940.94
2024-02-07T20:51:29.663Z,99942.50
2024-02-07T20:53:32.504Z,99937.13
2024-02-07T20:55:37.143Z,99940.13
2024-02-07T20:57:39.580Z,99938.19
2024-02-07T20:59:43.033Z,99939.72
2024-02-07T21:01:46.222Z,99950.03
2024-02-07T21:03:49.215Z,99936.69
2024-02-07T21:05:55.508Z,99905.78
2024-02-07T21:07:57.749Z,99919.44
2024-02-07T21:10:00.722Z,99937.38
2024-02-07T21:12:08.115Z,99939.34
2024-02-07T21:14:11.328Z,99936.66
2024-02-07T21:16:13.072Z,99942.78
2024-02-07T21:18:17.206Z,99941.97
2024-02-07T21:20:20.567Z,99923.34
2024-02-07T21:22:23.506Z,99940.75
2024-02-07T21:24:26.300Z,99932.09
2024-02-07T21:26:29.480Z,99917.28
2024-02-07T21:28:34.286Z,99903.97
2024-02-07T21:30:37.337Z,99949.56
2024-02-07T21:32:40.225Z,99856.16
2024-02-07T21:34:43.027Z,99938.09
2024-02-07T21:36:45.972Z,99932.03
2024-02-07T21:38:49.395Z,99925.66
2024-02-07T21:40:52.065Z,99921.78
2024-02-07T21:42:54.931Z,99949.50
2024-02-07T21:44:57.999Z,99939.59
2024-02-07T21:47:01.922Z,99939.63
2024-02-07T21:49:04.887Z,99927.19
2024-02-07T21:51:09.187Z,99926.47
2024-02-07T21:53:12.518Z,99909.72
2024-02-07T21:55:15.712Z,99909.72
2024-02-07T21:57:17.527Z,99943.94
2024-02-07T21:59:20.264Z,99939.38
2024-02-07T22:01:24.451Z,99913.59
2024-02-07T22:03:27.256Z,99952.81
2024-02-07T22:05:30.297Z,99934.88
2024-02-07T22:07:33.523Z,99945.97
2024-02-07T22:09:37.582Z,99940.63
2024-02-07T22:11:40.496Z,99939.13
2024-02-07T22:13:43.529Z,99950.28
2024-02-07T22:15:46.218Z,99936.16
2024-02-07T22:17:49.910Z,99910.72
2024-02-07T22:19:53.449Z,99922.81
2024-02-07T22:21:56.685Z,99939.22
2024-02-07T22:23:59.715Z,99932.38
2024-02-07T22:26:03.117Z,99925.97
2024-02-07T22:28:07.363Z,99939.66
2024-02-07T22:30:12.553Z,99937.44
2024-02-07T22:32:15.346Z,99943.25
2024-02-07T22:34:18.604Z,99920.44
2024-02-07T22:36:21.389Z,99940.59
2024-02-07T22:38:24.114Z,99933.06
2024-02-07T22:40:26.014Z,99941.00
2024-02-07T22:42:28.725Z,99913.66
2024-02-07T22:44:30.449Z,99928.88
2024-02-07T22:46:33.192Z,99924.28
2024-02-07T22:48:36.304Z,99900.75
2024-02-07T22:50:40.417Z,99920.16
2024-02-07T22:52:43.177Z,99917.44
2024-02-07T22:54:45.840Z,99902.63
2024-02-07T22:56:50.284Z,99923.22
2024-02-07T22:58:53.136Z,99907.97
2024-02-07T23:00:56.174Z,99889.78
2024-02-07T23:02:59.030Z,99916.81
2024-02-07T23:05:02.284Z,99916.09
2024-02-07T23:07:05.758Z,99908.50
2024-02-07T23:09:09.510Z,99918.44
2024-02-07T23:11:12.321Z,99914.31
2024-02-07T23:13:15.137Z,99894.97
2024-02-07T23:15:16.812Z,99924.69
2024-02-07T23:17:19.556Z,99924.34
2024-02-07T23:19:26.371Z,99924.00
2024-02-07T23:21:29.197Z,99927.81
2024-02-07T23:23:33.449Z,99927.47
2024-02-07T23:25:36.230Z,99913.44
2024-02-07T23:27:37.964Z,99909.63
2024-02-07T23:29:40.630Z,99937.78
2024-02-07T23:31:43.317Z,99933.28
2024-02-07T23:33:46.937Z,99937.47
2024-02-07T23:35:49.797Z,99924.53
2024-02-07T23:37:52.186Z,99939.78
2024-02-07T23:39:56.437Z,99941.31
2024-02-07T23:41:58.145Z,99937.13
2024-02-07T23:44:01.009Z,99941.72
2024-02-07T23:46:03.836Z,99940.97
2024-02-07T23:48:07.887Z,99937.56
2024-02-07T23:50:10.842Z,99933.75
2024-02-07T23:52:13.723Z,99926.53
2024-02-07T23:54:16.536Z,99927.25
2024-02-07T23:56:20.631Z,99921.94
2024-02-07T23:58:23.340Z,99930.31
